Time;durP1;ratioP1;P1;durP2;ratioP2;P2;SDS_P1;SDS_P2;PMS_P1;PMS_P2;Temp;Humidity;BMP_temperature;BMP_pressure;BME280_temperature;BME280_humidity;BME280_pressure;Samples;Min_cycle;Max_cycle;Signal;HPM_P1;HPM_P2
2022/01/13 00:02:53;;;;;;;30.27;20.00;;;-1.40;90.70;;;;;;6227507;28;20479;-67
2022/01/13 00:06:02;;;;;;;28.77;20.27;;;-1.40;90.70;;;;;;6227330;28;20474;-64
2022/01/13 00:09:06;;;;;;;40.83;24.47;;;-1.50;90.70;;;;;;6226618;28;20496;-66
2022/01/13 00:15:39;;;;;;;39.77;22.87;;;-1.50;90.90;;;;;;6251264;28;20975;-68
2022/01/13 00:18:49;;;;;;;38.73;22.33;;;-1.50;91.00;;;;;;6253683;28;20475;-67
2022/01/13 00:22:01;;;;;;;39.47;23.90;;;-1.50;91.10;;;;;;6252912;28;20475;-65
2022/01/13 00:25:08;;;;;;;37.20;22.07;;;-1.60;90.90;;;;;;6251165;28;20467;-65
2022/01/13 00:28:16;;;;;;;34.83;23.47;;;-1.60;91.30;;;;;;6250987;28;20475;-65
2022/01/13 00:31:24;;;;;;;38.50;26.23;;;-1.60;91.30;;;;;;6250614;28;20549;-66
2022/01/13 00:34:28;;;;;;;43.80;24.40;;;-1.60;91.50;;;;;;6250710;28;20526;-65
2022/01/13 00:37:34;;;;;;;49.83;28.70;;;-1.70;91.40;;;;;;6250556;28;20478;-67
2022/01/13 00:40:37;;;;;;;40.60;23.90;;;-1.60;91.60;;;;;;6250157;28;20786;-67
2022/01/13 00:43:42;;;;;;;44.23;25.27;;;-1.70;91.70;;;;;;6241954;28;20505;-65
2022/01/13 00:46:47;;;;;;;44.70;24.53;;;-1.60;91.90;;;;;;6250194;28;20459;-67
2022/01/13 00:49:50;;;;;;;51.43;25.47;;;-1.60;92.00;;;;;;6250476;28;20489;-65
2022/01/13 00:52:54;;;;;;;37.93;22.67;;;-1.60;91.90;;;;;;6250311;28;20897;-64
2022/01/13 00:56:00;;;;;;;35.73;22.57;;;-1.60;91.70;;;;;;6250424;28;20447;-64
2022/01/13 00:59:07;;;;;;;39.93;24.87;;;-1.60;91.60;;;;;;6250776;28;20451;-66
2022/01/13 01:02:10;;;;;;;42.17;23.30;;;-1.60;91.60;;;;;;6250606;28;20471;-65
2022/01/13 01:05:13;;;;;;;31.83;22.50;;;-1.70;91.40;;;;;;6241844;28;20959;-64
2022/01/13 01:08:18;;;;;;;34.43;21.93;;;-1.80;91.50;;;;;;6225455;28;20483;-66
2022/01/13 01:11:24;;;;;;;44.87;26.40;;;-1.80;91.60;;;;;;6225342;28;20464;-65
2022/01/13 01:14:31;;;;;;;39.93;23.13;;;-1.80;91.60;;;;;;6216285;28;20476;-66
2022/01/13 01:17:41;;;;;;;45.47;24.27;;;-1.80;91.70;;;;;;6225521;28;20482;-67
2022/01/13 01:20:51;;;;;;;41.00;23.20;;;-1.80;91.70;;;;;;6249089;28;20979;-66
2022/01/13 01:24:13;;;;;;;52.40;26.83;;;-1.90;91.80;;;;;;6249957;28;20474;-67
2022/01/13 01:27:19;;;;;;;57.77;28.10;;;-1.90;91.80;;;;;;6250227;28;20810;-66
2022/01/13 01:30:30;;;;;;;46.20;26.57;;;-1.90;91.80;;;;;;6249909;28;20471;-66
2022/01/13 01:33:35;;;;;;;57.33;25.90;;;-1.90;91.80;;;;;;6249663;28;20542;-67
2022/01/13 01:36:39;;;;;;;52.43;26.20;;;-2.00;91.70;;;;;;6249841;28;20545;-66
2022/01/13 01:39:45;;;;;;;43.70;27.43;;;-2.00;91.70;;;;;;6249611;28;20470;-66
2022/01/13 01:42:49;;;;;;;50.63;26.77;;;-2.00;92.00;;;;;;6250212;28;20475;-66
2022/01/13 01:45:54;;;;;;;45.17;25.60;;;-2.10;92.00;;;;;;6250125;28;20477;-67
2022/01/13 01:48:58;;;;;;;39.63;24.73;;;-2.10;92.00;;;;;;6249529;28;20478;-67
2022/01/13 01:52:02;;;;;;;47.80;28.70;;;-2.10;92.30;;;;;;6249729;28;20479;-66
2022/01/13 01:55:09;;;;;;;41.70;25.77;;;-2.10;92.50;;;;;;6249386;28;20528;-66
2022/01/13 01:58:12;;;;;;;40.40;24.57;;;-2.20;92.70;;;;;;6249647;28;20488;-67
2022/01/13 02:01:15;;;;;;;48.83;24.87;;;-2.20;92.70;;;;;;6252052;28;20475;-66
2022/01/13 02:04:20;;;;;;;35.13;23.20;;;-2.20;92.80;;;;;;6255174;28;20816;-65
2022/01/13 02:07:24;;;;;;;38.33;25.03;;;-2.20;92.90;;;;;;6254196;28;20482;-66
2022/01/13 02:10:28;;;;;;;44.50;24.17;;;-2.20;92.60;;;;;;6254046;28;20966;-66
2022/01/13 02:13:34;;;;;;;41.77;23.27;;;-2.20;92.90;;;;;;6254272;28;20475;-66
2022/01/13 02:16:44;;;;;;;40.80;23.10;;;-2.20;92.70;;;;;;6253955;28;20471;-66
2022/01/13 02:19:49;;;;;;;47.97;24.97;;;-2.20;92.70;;;;;;6253856;28;20471;-67
2022/01/13 02:22:54;;;;;;;39.03;21.23;;;-2.20;92.80;;;;;;6253885;28;20439;-66
2022/01/13 02:25:57;;;;;;;31.27;20.83;;;-2.20;92.80;;;;;;6253468;28;20779;-66
2022/01/13 02:29:00;;;;;;;43.90;22.37;;;-2.10;92.70;;;;;;6233664;28;20479;-65
2022/01/13 02:32:05;;;;;;;38.07;22.63;;;-2.10;92.60;;;;;;6246049;28;20479;-66
2022/01/13 02:35:09;;;;;;;33.47;21.93;;;-2.10;92.50;;;;;;6253843;28;20478;-66
2022/01/13 02:38:14;;;;;;;31.47;22.13;;;-2.20;92.40;;;;;;6253841;28;20974;-66
2022/01/13 02:41:17;;;;;;;35.07;23.40;;;-2.20;92.70;;;;;;6254348;28;20467;-66
2022/01/13 02:44:22;;;;;;;37.63;21.67;;;-2.20;92.80;;;;;;6253683;28;20970;-66
2022/01/13 02:47:47;;;;;;;38.13;21.10;;;-2.20;93.00;;;;;;6253306;28;20467;-66
2022/01/13 02:50:53;;;;;;;29.37;20.73;;;-2.20;92.90;;;;;;6253360;28;20481;-66
2022/01/13 02:53:57;;;;;;;36.23;23.20;;;-2.20;93.10;;;;;;6253174;28;20470;-66
2022/01/13 02:57:00;;;;;;;37.27;22.70;;;-2.30;93.00;;;;;;6252810;28;20862;-66
2022/01/13 03:00:05;;;;;;;35.70;22.43;;;-2.30;92.90;;;;;;6252897;28;20898;-67
2022/01/13 03:03:08;;;;;;;39.93;23.37;;;-2.30;93.10;;;;;;6252943;28;20818;-66
2022/01/13 03:06:13;;;;;;;31.30;21.20;;;-2.30;93.00;;;;;;6252746;28;20467;-67
2022/01/13 03:09:20;;;;;;;35.93;22.07;;;-2.30;92.90;;;;;;6252303;28;20494;-67
2022/01/13 03:12:26;;;;;;;40.40;23.37;;;-2.40;92.70;;;;;;6252484;28;20791;-66
2022/01/13 03:15:32;;;;;;;33.73;22.00;;;-2.40;92.70;;;;;;6252688;28;20533;-66
2022/01/13 03:18:35;;;;;;;45.77;24.90;;;-2.40;92.80;;;;;;6252395;28;20550;-65
2022/01/13 03:21:39;;;;;;;42.57;25.90;;;-2.40;93.00;;;;;;6252619;28;20838;-66
2022/01/13 03:24:44;;;;;;;43.80;24.77;;;-2.40;92.90;;;;;;6252268;28;20986;-67
2022/01/13 03:27:52;;;;;;;40.67;26.97;;;-2.40;92.80;;;;;;6252456;28;20478;-67
2022/01/13 03:30:56;;;;;;;42.27;24.93;;;-2.50;92.50;;;;;;6252415;28;20609;-67
2022/01/13 03:34:00;;;;;;;40.90;24.67;;;-2.50;92.70;;;;;;6252577;28;20947;-66
2022/01/13 03:37:03;;;;;;;32.33;19.30;;;-2.50;92.70;;;;;;6245266;28;20537;-68
2022/01/13 03:40:09;;;;;;;35.87;22.83;;;-2.40;93.00;;;;;;6239537;28;20483;-68
2022/01/13 03:43:15;;;;;;;33.33;21.00;;;-2.40;93.00;;;;;;6239472;28;20478;-67
2022/01/13 03:46:18;;;;;;;35.90;20.20;;;-2.50;92.80;;;;;;6228743;28;21304;-67
2022/01/13 03:49:21;;;;;;;31.73;21.37;;;-2.50;92.80;;;;;;6225539;28;20511;-67
2022/01/13 03:52:54;;;;;;;34.73;21.73;;;-2.50;92.90;;;;;;6226550;28;20476;-68
2022/01/13 03:56:52;;;;;;;33.90;20.47;;;-2.60;93.10;;;;;;6184902;28;20469;-68
2022/01/13 04:00:39;;;;;;;30.27;19.83;;;-2.60;93.00;;;;;;6227169;28;20963;-67
2022/01/13 04:03:44;;;;;;;38.77;21.33;;;-2.60;93.10;;;;;;6227697;28;20474;-67
2022/01/13 04:06:48;;;;;;;36.80;22.73;;;-2.60;93.10;;;;;;6227194;28;20482;-67
2022/01/13 04:10:27;;;;;;;31.43;20.60;;;-2.60;93.10;;;;;;6227131;28;20479;-68
2022/01/13 04:13:45;;;;;;;32.30;20.90;;;-2.60;93.00;;;;;;6227014;28;20482;-67
2022/01/13 04:16:49;;;;;;;31.20;19.10;;;-2.60;93.20;;;;;;6227131;28;20456;-67
2022/01/13 04:19:54;;;;;;;29.17;18.37;;;-2.70;93.20;;;;;;6227423;28;20464;-67
2022/01/13 04:22:57;;;;;;;27.70;18.63;;;-2.70;93.30;;;;;;6226026;28;20451;-67
2022/01/13 04:26:05;;;;;;;27.53;18.80;;;-2.70;93.10;;;;;;6218412;28;20439;-68
2022/01/13 04:29:19;;;;;;;31.20;18.80;;;-2.70;92.90;;;;;;6226665;28;20464;-67
2022/01/13 04:32:23;;;;;;;30.27;17.73;;;-2.70;93.20;;;;;;6227899;28;20475;-68
2022/01/13 04:35:27;;;;;;;25.53;18.00;;;-2.70;92.90;;;;;;6226328;28;20468;-68
2022/01/13 04:38:30;;;;;;;31.93;19.03;;;-2.70;92.80;;;;;;6226349;28;20959;-68
2022/01/13 04:41:35;;;;;;;30.37;20.20;;;-2.70;92.80;;;;;;6226610;28;20475;-67
2022/01/13 04:44:39;;;;;;;32.17;19.93;;;-2.70;92.80;;;;;;6228258;28;20471;-67
2022/01/13 04:47:42;;;;;;;28.90;20.87;;;-2.70;92.80;;;;;;6228183;28;20475;-68
2022/01/13 04:50:46;;;;;;;29.90;19.87;;;-2.70;92.80;;;;;;6227334;28;20487;-68
2022/01/13 04:53:50;;;;;;;34.67;20.97;;;-2.70;92.80;;;;;;6226230;28;20940;-68
2022/01/13 04:57:07;;;;;;;31.90;20.27;;;-2.70;92.70;;;;;;6226294;28;20779;-68
2022/01/13 05:00:11;;;;;;;30.20;18.67;;;-2.70;92.70;;;;;;6225799;28;20476;-67
2022/01/13 05:03:14;;;;;;;30.50;19.80;;;-2.70;92.80;;;;;;6225850;28;20472;-67
2022/01/13 05:06:19;;;;;;;25.73;17.27;;;-2.70;92.50;;;;;;6225976;28;20490;-67
2022/01/13 05:09:22;;;;;;;26.03;17.27;;;-2.70;92.50;;;;;;6225763;28;20507;-67
2022/01/13 05:12:34;;;;;;;32.97;19.20;;;-2.70;92.30;;;;;;6228099;28;20502;-68
2022/01/13 05:15:40;;;;;;;31.90;19.80;;;-2.70;92.40;;;;;;6225540;28;20502;-68
2022/01/13 05:18:49;;;;;;;25.53;18.87;;;-2.80;92.40;;;;;;6225730;28;20494;-68
2022/01/13 05:22:15;;;;;;;29.83;19.80;;;-2.80;92.50;;;;;;6225320;28;20476;-68
2022/01/13 05:25:20;;;;;;;30.30;18.67;;;-2.80;92.50;;;;;;6224936;28;20502;-68
2022/01/13 05:28:23;;;;;;;28.83;17.57;;;-2.80;92.40;;;;;;6225624;28;20476;-68
2022/01/13 05:31:26;;;;;;;26.80;16.23;;;-2.80;92.20;;;;;;6220484;28;20495;-67
2022/01/13 05:34:30;;;;;;;26.37;17.63;;;-2.80;92.10;;;;;;6225565;28;20472;-67
2022/01/13 05:37:47;;;;;;;24.20;16.83;;;-2.90;92.10;;;;;;6230293;28;20486;-67
2022/01/13 05:40:58;;;;;;;22.63;17.17;;;-2.90;92.10;;;;;;6230166;28;20975;-66
2022/01/13 05:44:01;;;;;;;20.80;17.30;;;-2.90;92.20;;;;;;6230372;28;20861;-67
2022/01/13 05:47:04;;;;;;;25.03;18.87;;;-2.90;92.20;;;;;;6230543;28;20444;-67
2022/01/13 05:50:09;;;;;;;27.20;16.90;;;-2.90;92.20;;;;;;6230603;28;20606;-66
2022/01/13 05:53:13;;;;;;;29.90;17.40;;;-3.00;92.20;;;;;;6229534;28;20991;-67
2022/01/13 05:56:17;;;;;;;24.53;15.73;;;-3.00;92.30;;;;;;6230033;28;20471;-67
2022/01/13 05:59:21;;;;;;;26.43;16.47;;;-3.10;92.30;;;;;;6229462;28;21018;-66
2022/01/13 06:02:24;;;;;;;25.27;16.57;;;-3.00;92.50;;;;;;6230238;28;20974;-66
2022/01/13 06:05:27;;;;;;;25.57;17.73;;;-3.00;92.30;;;;;;6229964;28;20470;-67
2022/01/13 06:08:34;;;;;;;26.83;16.53;;;-3.00;92.10;;;;;;6229633;28;20490;-67
2022/01/13 06:11:39;;;;;;;20.73;15.93;;;-3.00;92.10;;;;;;6229650;28;20487;-67
2022/01/13 06:14:43;;;;;;;24.90;16.30;;;-3.00;92.30;;;;;;6229916;28;20867;-67
2022/01/13 06:17:47;;;;;;;31.10;16.80;;;-3.00;92.30;;;;;;6229738;28;20467;-67
2022/01/13 06:20:50;;;;;;;27.77;15.97;;;-2.90;92.30;;;;;;6229887;28;20479;-67
2022/01/13 06:23:54;;;;;;;27.47;18.50;;;-2.90;92.10;;;;;;6229353;28;20990;-67
2022/01/13 06:26:57;;;;;;;21.40;15.90;;;-3.00;92.10;;;;;;6229656;28;20503;-67
2022/01/13 06:30:01;;;;;;;21.27;14.90;;;-3.00;92.10;;;;;;6229502;28;20468;-67
2022/01/13 06:33:04;;;;;;;23.30;15.17;;;-3.00;92.00;;;;;;6229032;28;20483;-68
2022/01/13 06:36:07;;;;;;;21.70;15.77;;;-3.00;92.20;;;;;;6228945;28;20555;-68
2022/01/13 06:39:12;;;;;;;24.90;14.80;;;-3.00;92.20;;;;;;6228831;28;20533;-67
2022/01/13 06:42:19;;;;;;;21.77;15.77;;;-3.10;92.20;;;;;;6228970;28;20499;-67
2022/01/13 06:45:22;;;;;;;23.77;14.83;;;-3.10;92.30;;;;;;6228852;28;20471;-67
2022/01/13 06:48:25;;;;;;;29.20;16.17;;;-3.10;92.50;;;;;;6228796;28;20998;-68
2022/01/13 06:51:29;;;;;;;24.17;15.97;;;-3.10;92.50;;;;;;6228841;28;20471;-68
2022/01/13 06:54:33;;;;;;;29.00;16.43;;;-3.10;92.60;;;;;;6227803;28;20487;-68
2022/01/13 06:57:38;;;;;;;24.83;16.40;;;-3.00;92.80;;;;;;6228666;28;21107;-68
2022/01/13 07:00:41;;;;;;;26.03;17.17;;;-3.00;92.70;;;;;;6228889;28;20479;-67
2022/01/13 07:03:45;;;;;;;24.83;18.43;;;-2.90;92.60;;;;;;6228300;28;20854;-67
2022/01/13 07:06:48;;;;;;;31.33;18.07;;;-2.80;92.50;;;;;;6226906;28;20495;-68
2022/01/13 07:09:52;;;;;;;26.93;17.07;;;-2.80;92.40;;;;;;6226771;28;20491;-67
2022/01/13 07:12:56;;;;;;;26.53;17.20;;;-2.80;92.30;;;;;;6226960;28;20525;-69
2022/01/13 07:16:05;;;;;;;27.93;18.37;;;-2.70;92.30;;;;;;6227255;28;20468;-68
2022/01/13 07:19:11;;;;;;;41.20;20.77;;;-2.80;92.20;;;;;;6226562;28;20490;-68
2022/01/13 07:22:17;;;;;;;31.17;20.43;;;-2.70;92.30;;;;;;6228627;28;20484;-68
2022/01/13 07:25:21;;;;;;;29.60;20.80;;;-2.70;92.60;;;;;;6228338;28;20500;-68
2022/01/13 07:28:25;;;;;;;29.70;19.80;;;-2.70;92.30;;;;;;6228260;28;20475;-65
2022/01/13 07:31:28;;;;;;;31.87;22.13;;;-2.60;92.50;;;;;;6230799;28;20547;-64
2022/01/13 07:34:32;;;;;;;31.07;21.77;;;-2.60;92.70;;;;;;6236632;28;20801;-69
2022/01/13 07:37:35;;;;;;;30.77;21.50;;;-2.60;92.90;;;;;;6238393;28;20482;-68
2022/01/13 07:40:39;;;;;;;33.27;20.00;;;-2.60;93.10;;;;;;6234433;28;20498;-68
2022/01/13 07:43:47;;;;;;;28.27;18.50;;;-2.50;92.90;;;;;;6251911;28;20483;-68
2022/01/13 07:46:51;;;;;;;29.13;18.37;;;-2.40;93.00;;;;;;6249074;28;20459;-67
2022/01/13 07:49:54;;;;;;;27.30;19.53;;;-2.30;92.80;;;;;;6239214;28;20470;-67
2022/01/13 07:52:57;;;;;;;27.70;17.53;;;-2.30;92.80;;;;;;6251354;28;20474;-66
2022/01/13 07:56:01;;;;;;;34.13;20.17;;;-2.20;92.70;;;;;;6251792;28;20447;-66
2022/01/13 07:59:05;;;;;;;27.10;17.10;;;-2.10;93.00;;;;;;6251084;28;20824;-66
2022/01/13 08:02:08;;;;;;;25.03;19.33;;;-2.10;92.60;;;;;;6254410;28;20447;-66
2022/01/13 08:05:12;;;;;;;26.53;18.00;;;-2.00;92.80;;;;;;6251587;28;20981;-65
2022/01/13 08:08:15;;;;;;;26.23;19.27;;;-2.00;92.80;;;;;;6241568;28;20779;-64
2022/01/13 08:11:19;;;;;;;27.60;19.03;;;-2.00;92.70;;;;;;6251561;28;20548;-64
2022/01/13 08:14:23;;;;;;;24.47;14.63;;;-1.90;92.60;;;;;;6251319;28;20472;-64
2022/01/13 08:20:48;;;;;;;35.70;20.20;;;-1.70;92.70;;;;;;6252114;28;20484;-66
2022/01/13 08:23:51;;;;;;;38.20;20.83;;;-1.70;92.20;;;;;;6251099;28;20482;-66
2022/01/13 08:26:56;;;;;;;33.23;23.23;;;-1.70;92.20;;;;;;6251441;28;20827;-66
2022/01/13 08:29:59;;;;;;;32.53;21.50;;;-1.80;92.60;;;;;;6251313;28;20490;-66
2022/01/13 08:33:02;;;;;;;35.90;21.87;;;-1.70;92.70;;;;;;6251143;28;20483;-65
2022/01/13 08:36:06;;;;;;;39.30;24.93;;;-1.50;92.90;;;;;;6250982;28;20970;-66
2022/01/13 08:39:10;;;;;;;36.93;23.30;;;-1.30;92.10;;;;;;6251023;28;20482;-66
2022/01/13 08:42:17;;;;;;;40.30;25.60;;;-1.10;92.00;;;;;;6246425;28;20951;-67
2022/01/13 08:45:20;;;;;;;32.50;22.13;;;-1.00;91.70;;;;;;6250384;28;20502;-67
2022/01/13 08:48:24;;;;;;;33.47;23.47;;;-0.80;91.60;;;;;;6250654;28;20474;-67
2022/01/13 08:51:28;;;;;;;34.27;24.80;;;-0.50;91.00;;;;;;6250792;28;20482;-67
2022/01/13 08:54:31;;;;;;;42.33;25.70;;;-0.40;90.70;;;;;;6250587;28;20493;-67
2022/01/13 08:57:36;;;;;;;33.27;24.00;;;-0.30;90.30;;;;;;6250217;28;21005;-64
2022/01/13 09:00:39;;;;;;;42.03;26.07;;;-0.10;90.10;;;;;;6249894;28;20486;-64
2022/01/13 09:03:43;;;;;;;47.53;27.20;;;-0.20;90.00;;;;;;6249907;28;20477;-64
2022/01/13 09:06:46;;;;;;;40.90;24.93;;;-0.20;90.00;;;;;;6249669;28;20474;-64
2022/01/13 09:09:49;;;;;;;40.63;26.00;;;-0.10;90.00;;;;;;6249574;28;20816;-64
2022/01/13 09:12:54;;;;;;;39.07;25.10;;;0.00;89.90;;;;;;6250891;28;20467;-64
2022/01/13 09:15:59;;;;;;;47.77;27.40;;;0.10;90.00;;;;;;6250001;28;20474;-63
2022/01/13 09:19:09;;;;;;;39.83;24.57;;;0.20;89.40;;;;;;6250700;28;20482;-66
2022/01/13 09:22:12;;;;;;;38.97;26.97;;;0.30;89.80;;;;;;6250588;28;20471;-64
2022/01/13 09:25:15;;;;;;;40.23;26.00;;;0.50;89.30;;;;;;6251224;28;20471;-64
2022/01/13 09:28:20;;;;;;;43.00;25.20;;;0.70;87.70;;;;;;6250768;28;20493;-63
2022/01/13 09:31:23;;;;;;;42.27;28.60;;;0.80;86.90;;;;;;6250123;28;20486;-63
2022/01/13 09:34:29;;;;;;;34.60;26.20;;;0.90;86.50;;;;;;6251149;28;20877;-63
2022/01/13 09:37:34;;;;;;;36.77;24.40;;;1.10;86.60;;;;;;6250925;28;20565;-64
2022/01/13 09:40:39;;;;;;;35.37;23.27;;;1.30;85.10;;;;;;6254357;28;20483;-64
2022/01/13 09:43:46;;;;;;;29.40;21.60;;;1.60;84.00;;;;;;6249225;28;20474;-60
2022/01/13 09:46:50;;;;;;;30.37;22.97;;;1.80;83.20;;;;;;6249485;28;21010;-61
2022/01/13 09:49:53;;;;;;;34.57;23.80;;;2.10;81.50;;;;;;6249402;28;20481;-66
2022/01/13 09:52:57;;;;;;;33.77;24.20;;;2.30;80.20;;;;;;6249769;28;20443;-66
2022/01/13 09:56:00;;;;;;;39.10;25.80;;;2.50;78.70;;;;;;6250220;28;20935;-64
2022/01/13 09:59:06;;;;;;;35.53;24.73;;;2.60;78.60;;;;;;6249822;28;20451;-65
2022/01/13 10:02:09;;;;;;;33.27;21.90;;;2.80;78.80;;;;;;6249610;28;20748;-61
2022/01/13 10:05:16;;;;;;;41.00;24.57;;;2.80;78.30;;;;;;6249548;28;20459;-62
2022/01/13 10:08:21;;;;;;;40.97;24.80;;;2.90;77.30;;;;;;6249291;28;20467;-63
2022/01/13 10:11:29;;;;;;;37.83;22.63;;;2.70;77.10;;;;;;6249522;28;20471;-65
2022/01/13 10:17:54;;;;;;;33.00;20.80;;;2.70;75.50;;;;;;6249745;28;20965;-63
2022/01/13 10:21:06;;;;;;;30.70;22.73;;;2.80;75.40;;;;;;6249712;28;20505;-61
2022/01/13 10:24:12;;;;;;;32.40;21.63;;;3.00;75.50;;;;;;6254764;28;20468;-64
2022/01/13 10:27:18;;;;;;;19.13;16.40;;;3.10;74.60;;;;;;6255059;28;20513;-63
2022/01/13 10:30:25;;;;;;;38.53;18.53;;;3.10;71.20;;;;;;6254283;28;20490;-64
2022/01/13 10:33:30;;;;;;;20.40;16.73;;;3.20;68.60;;;;;;6254038;28;20981;-65
2022/01/13 10:36:33;;;;;;;24.03;16.23;;;3.10;66.90;;;;;;6253676;28;20467;-66
2022/01/13 10:39:54;;;;;;;27.27;17.50;;;3.10;67.10;;;;;;6253648;28;20475;-66
2022/01/13 10:43:10;;;;;;;24.20;17.13;;;3.30;67.20;;;;;;6253471;28;20474;-66
2022/01/13 10:46:14;;;;;;;23.27;15.57;;;3.40;66.10;;;;;;6253432;28;20471;-66
2022/01/13 10:49:17;;;;;;;24.80;15.90;;;3.60;64.80;;;;;;6253326;28;20605;-66
2022/01/13 10:52:24;;;;;;;18.63;15.97;;;3.70;64.00;;;;;;6243773;28;20486;-67
2022/01/13 10:55:27;;;;;;;23.23;14.70;;;3.80;62.10;;;;;;6253031;28;20532;-66
2022/01/13 10:58:51;;;;;;;26.90;15.97;;;4.00;61.60;;;;;;6253601;28;20570;-66
2022/01/13 11:02:08;;;;;;;21.23;15.83;;;4.30;61.70;;;;;;6242247;28;20457;-66
2022/01/13 11:05:12;;;;;;;23.43;14.97;;;4.50;61.10;;;;;;6229254;28;20457;-67
2022/01/13 11:08:25;;;;;;;20.77;15.70;;;4.70;60.20;;;;;;6228436;28;20471;-66
2022/01/13 11:11:33;;;;;;;26.83;15.23;;;4.70;59.70;;;;;;6228222;28;20471;-68
2022/01/13 11:14:41;;;;;;;22.63;15.53;;;4.90;59.70;;;;;;6228428;28;20524;-68
2022/01/13 11:17:46;;;;;;;24.83;15.70;;;5.20;58.90;;;;;;6228256;28;20483;-68
2022/01/13 11:20:50;;;;;;;21.57;13.40;;;5.60;57.80;;;;;;6228082;28;20475;-67
2022/01/13 11:23:55;;;;;;;20.37;14.30;;;8.00;56.90;;;;;;6227968;28;20534;-68
2022/01/13 11:27:00;;;;;;;24.17;15.90;;;12.30;46.90;;;;;;6227996;28;20522;-68
2022/01/13 11:30:06;;;;;;;20.07;15.93;;;16.30;37.70;;;;;;6227896;28;20529;-62
2022/01/13 11:33:10;;;;;;;22.27;18.33;;;17.30;32.90;;;;;;6226294;28;20480;-63
2022/01/13 11:36:19;;;;;;;24.43;20.70;;;16.60;31.70;;;;;;6227610;28;20487;-63
2022/01/13 11:39:37;;;;;;;26.40;19.57;;;15.40;32.20;;;;;;6228938;28;20952;-64
2022/01/13 11:42:47;;;;;;;24.03;18.63;;;15.30;33.90;;;;;;6230029;28;20468;-62
2022/01/13 11:45:50;;;;;;;31.90;19.90;;;16.50;32.90;;;;;;6227201;28;20472;-63
2022/01/13 11:49:03;;;;;;;24.43;19.00;;;17.80;31.20;;;;;;6249308;28;20994;-65
2022/01/13 11:52:14;;;;;;;20.60;18.03;;;19.70;29.60;;;;;;6251830;28;20482;-64
2022/01/13 11:55:25;;;;;;;19.70;16.10;;;21.50;27.60;;;;;;6246205;28;20687;-64
2022/01/13 11:58:49;;;;;;;19.83;16.23;;;23.50;25.70;;;;;;6242881;28;20374;-64
2022/01/13 12:01:53;;;;;;;20.70;16.40;;;25.70;23.60;;;;;;6248052;28;20228;-64
2022/01/13 12:05:14;;;;;;;16.93;14.83;;;26.90;21.30;;;;;;6252129;28;20215;-64
2022/01/13 12:08:41;;;;;;;18.73;14.53;;;27.40;20.00;;;;;;6251535;28;20684;-64
2022/01/13 12:11:50;;;;;;;15.97;14.23;;;27.80;19.50;;;;;;6251298;28;20246;-66
2022/01/13 12:14:53;;;;;;;13.17;11.83;;;28.20;19.70;;;;;;6251059;28;20577;-64
2022/01/13 12:18:01;;;;;;;13.80;11.57;;;27.50;18.20;;;;;;6251349;28;20230;-64
2022/01/13 12:21:25;;;;;;;16.37;13.13;;;26.60;18.30;;;;;;6244718;28;20231;-64
2022/01/13 12:24:44;;;;;;;12.90;11.70;;;26.60;18.70;;;;;;6229034;28;20703;-64
2022/01/13 12:27:52;;;;;;;13.73;11.60;;;26.80;18.40;;;;;;6226205;28;20334;-64
2022/01/13 12:30:55;;;;;;;13.50;11.07;;;25.90;18.60;;;;;;6226632;28;20239;-64
2022/01/13 12:33:58;;;;;;;13.07;10.30;;;25.90;18.90;;;;;;6235079;28;20286;-64
2022/01/13 12:37:22;;;;;;;15.70;11.10;;;25.50;18.40;;;;;;6232384;28;20243;-64
2022/01/13 12:40:25;;;;;;;13.87;11.00;;;25.90;18.70;;;;;;6246836;28;20232;-64
2022/01/13 12:43:49;;;;;;;10.93;8.30;;;25.60;18.20;;;;;;6241305;28;20220;-64
2022/01/13 12:46:52;;;;;;;13.83;9.90;;;24.70;17.90;;;;;;6236354;28;20216;-64
2022/01/13 12:50:18;;;;;;;8.40;7.60;;;24.70;18.50;;;;;;6250965;28;20311;-64
2022/01/13 12:53:25;;;;;;;8.90;7.43;;;26.00;17.20;;;;;;6250866;28;20232;-62
2022/01/13 12:56:30;;;;;;;10.90;7.60;;;26.80;16.50;;;;;;6251201;28;20234;-62
2022/01/13 12:59:34;;;;;;;11.60;7.40;;;27.00;16.30;;;;;;6250159;28;20280;-62
2022/01/13 13:02:37;;;;;;;7.53;6.73;;;27.20;16.00;;;;;;6250305;28;20244;-62
2022/01/13 13:05:44;;;;;;;11.10;8.20;;;27.10;16.00;;;;;;6250449;28;20232;-63
2022/01/13 13:08:49;;;;;;;8.93;7.00;;;27.80;15.80;;;;;;6250327;28;20236;-64
2022/01/13 13:11:55;;;;;;;7.10;6.17;;;28.70;15.50;;;;;;6250281;28;20578;-65
2022/01/13 13:18:22;;;;;;;8.00;7.20;;;28.80;15.10;;;;;;6250256;28;20243;-66
2022/01/13 13:21:28;;;;;;;9.07;8.07;;;29.10;14.70;;;;;;6250016;28;20239;-65
2022/01/13 13:24:40;;;;;;;7.97;7.17;;;29.00;14.80;;;;;;6249950;28;20236;-67
2022/01/13 13:27:43;;;;;;;7.80;6.40;;;28.90;14.70;;;;;;6249829;28;20227;-64
2022/01/13 13:30:47;;;;;;;7.90;7.07;;;29.10;14.40;;;;;;6249687;28;20248;-66
2022/01/13 13:34:14;;;;;;;9.27;6.37;;;29.00;14.50;;;;;;6250095;28;20371;-65
2022/01/13 13:37:17;;;;;;;7.03;6.20;;;29.00;14.40;;;;;;6249391;28;20233;-65
2022/01/13 13:40:23;;;;;;;8.87;6.53;;;28.50;14.70;;;;;;6249251;28;20231;-65
2022/01/13 13:43:35;;;;;;;10.17;7.77;;;27.90;15.00;;;;;;6249419;28;20674;-65
2022/01/13 13:46:38;;;;;;;9.77;7.23;;;28.30;15.20;;;;;;6245565;28;20325;-65
2022/01/13 13:49:47;;;;;;;9.70;7.77;;;28.00;15.10;;;;;;6249459;28;20247;-64
2022/01/13 13:53:08;;;;;;;8.47;7.57;;;27.70;15.20;;;;;;6249608;28;20231;-63
2022/01/13 13:56:13;;;;;;;13.37;9.53;;;28.00;15.40;;;;;;6225941;28;20224;-63
2022/01/13 13:59:22;;;;;;;10.10;7.73;;;27.50;15.30;;;;;;6229671;28;20256;-63
2022/01/13 14:02:29;;;;;;;8.77;7.87;;;26.30;15.70;;;;;;6225123;28;20233;-66
2022/01/13 14:05:39;;;;;;;11.00;8.87;;;25.80;16.30;;;;;;6229886;28;20721;-66
2022/01/13 14:08:53;;;;;;;9.87;7.90;;;25.80;16.50;;;;;;6229818;28;20221;-64
2022/01/13 14:11:57;;;;;;;8.63;7.87;;;26.10;16.60;;;;;;6229404;28;20240;-64
2022/01/13 14:15:29;;;;;;;9.90;8.67;;;26.00;16.70;;;;;;6229312;28;20252;-63
2022/01/13 14:18:36;;;;;;;9.87;8.83;;;25.90;16.70;;;;;;6195600;28;20315;-63
2022/01/13 14:21:50;;;;;;;9.27;8.30;;;25.70;16.80;;;;;;6229527;28;20251;-64
2022/01/13 14:24:54;;;;;;;10.73;8.87;;;24.80;17.40;;;;;;6229736;28;20244;-64
2022/01/13 14:28:00;;;;;;;9.27;8.27;;;23.00;18.00;;;;;;6229033;28;20293;-63
2022/01/13 14:31:05;;;;;;;9.53;8.33;;;21.50;18.90;;;;;;6228873;28;20248;-64
2022/01/13 14:34:08;;;;;;;12.70;9.23;;;20.00;19.80;;;;;;6229470;28;20604;-64
2022/01/13 14:37:12;;;;;;;9.07;7.83;;;18.50;21.00;;;;;;6229288;28;20247;-63
2022/01/13 14:40:15;;;;;;;11.03;8.60;;;17.20;22.10;;;;;;6229109;28;20484;-63
2022/01/13 14:43:22;;;;;;;11.50;8.10;;;15.70;23.30;;;;;;6228843;28;20471;-64
2022/01/13 14:46:27;;;;;;;10.60;7.83;;;14.40;24.50;;;;;;6230462;28;20479;-62
2022/01/13 14:49:33;;;;;;;13.77;8.53;;;13.30;25.50;;;;;;6253051;28;20479;-63
2022/01/13 14:52:37;;;;;;;9.43;7.63;;;12.40;26.50;;;;;;6252979;28;20486;-63
2022/01/13 14:55:40;;;;;;;10.47;8.27;;;11.70;27.40;;;;;;6252920;28;20474;-63
2022/01/13 14:58:45;;;;;;;9.97;7.70;;;11.10;28.60;;;;;;6253194;28;20478;-63
2022/01/13 15:01:48;;;;;;;8.83;7.53;;;10.20;29.60;;;;;;6253058;28;20959;-63
2022/01/13 15:04:51;;;;;;;10.53;7.40;;;9.70;31.20;;;;;;6253308;28;20493;-63
2022/01/13 15:07:54;;;;;;;10.70;7.93;;;9.40;31.90;;;;;;6243500;28;20458;-63
2022/01/13 15:10:58;;;;;;;13.83;8.20;;;9.00;33.30;;;;;;6252381;28;20490;-62
2022/01/13 15:14:03;;;;;;;9.40;7.73;;;8.70;33.70;;;;;;6252644;28;20439;-64
2022/01/13 15:17:06;;;;;;;11.63;8.03;;;8.40;33.90;;;;;;6252238;28;20475;-63
2022/01/13 15:20:11;;;;;;;13.17;8.97;;;8.30;34.40;;;;;;6252430;28;20479;-62
2022/01/13 15:23:15;;;;;;;9.70;8.27;;;8.00;34.80;;;;;;6252506;28;20455;-62
2022/01/13 15:26:18;;;;;;;8.23;7.30;;;7.80;35.40;;;;;;6252459;28;20528;-63
2022/01/13 15:29:23;;;;;;;10.40;8.13;;;7.60;35.70;;;;;;6252444;28;20471;-62
2022/01/13 15:32:26;;;;;;;10.60;7.03;;;7.40;35.90;;;;;;6252515;28;20467;-63
2022/01/13 15:35:29;;;;;;;7.97;7.17;;;7.30;36.80;;;;;;6252542;28;20473;-64
2022/01/13 15:38:32;;;;;;;9.07;7.47;;;7.10;37.00;;;;;;6251832;28;20498;-63
2022/01/13 15:41:36;;;;;;;13.87;8.33;;;7.00;37.40;;;;;;6252111;28;20471;-63
2022/01/13 15:44:40;;;;;;;10.37;7.77;;;6.80;38.20;;;;;;6251940;28;20482;-63
2022/01/13 15:47:45;;;;;;;10.50;8.70;;;6.70;38.60;;;;;;6252226;28;20481;-62
2022/01/13 15:50:49;;;;;;;8.10;7.30;;;6.60;39.10;;;;;;6251623;28;20942;-63
2022/01/13 15:53:52;;;;;;;13.47;8.83;;;6.50;39.60;;;;;;6251767;28;20463;-62
2022/01/13 15:56:55;;;;;;;14.10;8.50;;;6.50;40.00;;;;;;6251710;28;20494;-64
2022/01/13 16:00:05;;;;;;;12.40;9.37;;;6.30;40.30;;;;;;6251862;28;20475;-64
2022/01/13 16:03:08;;;;;;;13.47;8.87;;;6.30;40.90;;;;;;6251382;28;20831;-67
2022/01/13 16:06:12;;;;;;;12.00;8.80;;;6.10;41.20;;;;;;6251086;28;20459;-67
2022/01/13 16:09:15;;;;;;;18.37;9.70;;;6.10;41.70;;;;;;6251191;28;20475;-67